Weather at San Diego International Airport

Public forecast

Using degrees Fahrenheit for public forecast. Weather courtesy of forecast.io.

Current aviation weather report (METAR) for San Diego International Airport

Retrieved 2021/08/04 14:51 UTC (21 minutes ago):

KSAN 041451Z 30004KT 8SM OVC007 19/17 A2993 RMK AO2 SLP133 T01940167 51006

Aviation forecast (TAF) for San Diego International Airport

Retrieved 2021/08/04 12:33 UTC (3 hours ago):

TAF KSAN 041130Z 0412/0518 VRB04KT P6SM OVC008 TEMPO 0412/0414 5SM BR OVC006 FM041630 VRB05KT P6SM FEW009 FM041800 29011KT P6SM SKC FM050200 29006KT P6SM FEW007 FM050600 VRB03KT 6SM BR BKN007 FM051600 VRB04KT P6SM FEW007